createdAt,value
2023-05-05T00:01:14.470Z,12.73
2023-05-05T00:06:33.284Z,12.72
2023-05-05T00:11:52.653Z,12.72
2023-05-05T00:17:11.458Z,12.72
2023-05-05T00:22:30.194Z,12.72
2023-05-05T00:27:49.774Z,12.72
2023-05-05T00:33:09.487Z,12.72
2023-05-05T00:38:28.864Z,12.71
2023-05-05T00:43:48.332Z,12.71
2023-05-05T00:49:07.172Z,12.71
2023-05-05T00:54:26.917Z,12.71
2023-05-05T00:59:46.287Z,12.71
2023-05-05T01:05:05.525Z,12.71
2023-05-05T01:10:25.398Z,12.71
2023-05-05T01:15:44.918Z,12.7
2023-05-05T01:21:04.502Z,12.7
2023-05-05T01:26:23.845Z,12.7
2023-05-05T01:31:42.874Z,12.7
2023-05-05T01:37:01.841Z,12.71
2023-05-05T01:42:21.217Z,12.7
2023-05-05T01:47:40.187Z,12.7
2023-05-05T01:52:59.848Z,12.7
2023-05-05T01:58:19.038Z,12.7
2023-05-05T02:03:37.961Z,12.7
2023-05-05T02:08:57.302Z,12.7
2023-05-05T02:14:16.451Z,12.7
2023-05-05T02:19:36.211Z,12.69
2023-05-05T02:24:55.380Z,12.7
2023-05-05T02:30:14.319Z,12.69
2023-05-05T02:35:33.674Z,12.7
2023-05-05T02:40:52.679Z,12.7
2023-05-05T02:46:11.669Z,12.69
2023-05-05T02:51:30.947Z,12.69
2023-05-05T02:56:50.358Z,12.69
2023-05-05T03:02:09.799Z,12.68
2023-05-05T03:07:29.525Z,12.69
2023-05-05T03:12:49.040Z,12.68
2023-05-05T03:18:07.978Z,12.69
2023-05-05T03:23:27.407Z,12.69
2023-05-05T03:28:46.638Z,12.69
2023-05-05T03:34:05.667Z,12.68
2023-05-05T03:39:24.807Z,12.68
2023-05-05T03:44:44.064Z,12.68
2023-05-05T03:50:03.714Z,12.68
2023-05-05T03:55:22.748Z,12.68
2023-05-05T04:00:42.087Z,12.68
2023-05-05T04:06:01.177Z,12.68
2023-05-05T04:11:20.583Z,12.68
2023-05-05T04:16:39.572Z,12.68
2023-05-05T04:21:59.006Z,12.7
2023-05-05T04:27:18.618Z,12.71
2023-05-05T04:32:38.238Z,12.73
2023-05-05T04:37:57.051Z,12.76
2023-05-05T04:43:16.665Z,12.8
2023-05-05T04:48:36.224Z,12.85
2023-05-05T04:53:55.384Z,12.91
2023-05-05T04:59:14.899Z,12.95
2023-05-05T05:04:34.045Z,12.97
2023-05-05T05:09:52.770Z,12.96
2023-05-05T05:15:11.551Z,12.99
2023-05-05T05:20:30.496Z,13.03
2023-05-05T05:25:49.666Z,13.07
2023-05-05T05:31:09.350Z,13.11
2023-05-05T05:36:28.842Z,13.17
2023-05-05T05:41:48.533Z,13.24
2023-05-05T05:47:08.082Z,13.32
2023-05-05T05:52:27.731Z,13.4
2023-05-05T05:57:46.635Z,13.5
2023-05-05T06:03:05.590Z,13.6
2023-05-05T06:08:25.188Z,13.69
2023-05-05T06:13:44.187Z,13.76
2023-05-05T06:19:03.864Z,13.84
2023-05-05T06:24:23.376Z,13.89
2023-05-05T06:29:42.436Z,13.98
2023-05-05T06:35:02.066Z,14.05
2023-05-05T06:40:21.676Z,14.11
2023-05-05T06:45:43.101Z,14.19
2023-05-05T06:56:19.943Z,14.34
2023-05-05T07:01:38.795Z,14.36
2023-05-05T07:06:58.224Z,14.36
2023-05-05T07:12:17.041Z,14.35
2023-05-05T07:17:36.574Z,14.4
2023-05-05T07:22:55.437Z,14.36
2023-05-05T07:28:14.456Z,14.36
2023-05-05T07:33:34.131Z,14.36
2023-05-05T07:38:53.569Z,14.36
2023-05-05T07:44:12.360Z,14.4
2023-05-05T07:49:31.223Z,14.39
2023-05-05T07:54:50.690Z,14.43
2023-05-05T08:00:09.922Z,14.4
2023-05-05T08:10:47.861Z,14.39
2023-05-05T08:21:26.345Z,14.39
2023-05-05T08:26:45.613Z,14.4
2023-05-05T08:32:05.053Z,14.39
2023-05-05T08:37:24.030Z,14.4
2023-05-05T08:42:42.990Z,14.4
2023-05-05T08:48:02.230Z,14.39
2023-05-05T08:53:21.120Z,14.39
2023-05-05T08:58:40.658Z,14.4
2023-05-05T09:04:00.288Z,14.45
2023-05-05T09:14:38.917Z,14.4
2023-05-05T09:19:58.500Z,14.39
2023-05-05T09:25:17.982Z,14.4
2023-05-05T09:30:36.731Z,14.4
2023-05-05T09:35:55.502Z,14.4
2023-05-05T09:41:15.117Z,14.4
2023-05-05T09:46:34.620Z,14.4
2023-05-05T09:51:53.460Z,14.4
2023-05-05T09:57:12.187Z,14.4
2023-05-05T10:02:30.906Z,14.39
2023-05-05T10:07:50.242Z,14.4
2023-05-05T10:13:09.360Z,14.39
2023-05-05T10:18:28.186Z,14.39
2023-05-05T10:23:47.564Z,14.41
2023-05-05T10:29:06.940Z,14.41
2023-05-05T10:34:26.195Z,14.38
2023-05-05T10:39:45.224Z,14.4
2023-05-05T10:45:04.799Z,14.39
2023-05-05T10:50:24.217Z,14.42
2023-05-05T10:55:43.800Z,14.4
2023-05-05T11:01:02.508Z,14.4
2023-05-05T11:06:21.877Z,14.42
2023-05-05T11:11:40.726Z,14.4
2023-05-05T11:16:59.581Z,14.4
2023-05-05T11:22:18.855Z,14.39
2023-05-05T11:27:37.579Z,14.39
2023-05-05T11:32:56.801Z,14.42
2023-05-05T11:38:15.688Z,14.39
2023-05-05T11:43:34.904Z,14.39
2023-05-05T11:48:53.609Z,14.39
2023-05-05T11:54:12.838Z,14.39
2023-05-05T11:59:31.605Z,14.39
2023-05-05T12:04:50.834Z,14.39
2023-05-05T12:10:10.367Z,14.41
2023-05-05T12:15:29.324Z,14.39
2023-05-05T12:20:48.386Z,14.4
2023-05-05T12:26:07.574Z,14.4
2023-05-05T12:31:26.686Z,14.4
2023-05-05T12:36:46.206Z,14.39
2023-05-05T12:42:05.311Z,14.38
2023-05-05T12:47:24.193Z,14.38
2023-05-05T12:52:43.241Z,14.38
2023-05-05T12:58:02.286Z,14.38
2023-05-05T13:03:21.545Z,14.39
2023-05-05T13:08:40.786Z,14.39
2023-05-05T13:13:59.894Z,14.39
2023-05-05T13:19:18.722Z,14.39
2023-05-05T13:24:50.443Z,14.4
2023-05-05T13:29:57.471Z,14.4
2023-05-05T13:35:16.722Z,14.4
2023-05-05T13:40:35.722Z,14.4
2023-05-05T13:45:55.938Z,14.39
2023-05-05T13:51:14.466Z,14.4
2023-05-05T13:56:33.705Z,14.39
2023-05-05T14:01:52.854Z,14.4
2023-05-05T14:07:12.167Z,14.4
2023-05-05T14:12:31.476Z,14.4
2023-05-05T14:17:50.507Z,14.42
2023-05-05T14:23:09.940Z,14.4
2023-05-05T14:28:29.167Z,14.4
2023-05-05T14:33:48.604Z,14.4
2023-05-05T14:39:07.353Z,14.4
2023-05-05T14:44:26.723Z,14.41
2023-05-05T14:49:45.622Z,14.41
2023-05-05T14:55:04.430Z,14.39
2023-05-05T15:00:24.007Z,14.4
2023-05-05T15:05:43.090Z,14.39
2023-05-05T15:11:02.065Z,14.39
2023-05-05T15:16:21.157Z,14.4
2023-05-05T15:21:40.637Z,14.38
2023-05-05T15:27:00.181Z,14.41
2023-05-05T15:32:28.175Z,14.4
2023-05-05T15:37:38.098Z,14.41
2023-05-05T15:42:57.045Z,14.39
2023-05-05T15:48:16.566Z,14.39
2023-05-05T15:53:35.375Z,14.39
2023-05-05T15:58:54.878Z,14.39
2023-05-05T16:04:14.297Z,14.39
2023-05-05T16:09:33.581Z,14.4
2023-05-05T16:14:52.370Z,14.4
2023-05-05T16:20:11.182Z,14.4
2023-05-05T16:25:30.216Z,14.39
2023-05-05T16:30:49.783Z,14.38
2023-05-05T16:41:52.928Z,13.87
2023-05-05T16:47:11.857Z,13.42
2023-05-05T16:52:31.442Z,13.34
2023-05-05T16:57:50.590Z,13.3
2023-05-05T17:03:09.414Z,13.25
2023-05-05T17:08:29.064Z,13.18
2023-05-05T17:13:48.356Z,13.11
2023-05-05T17:19:07.618Z,13.02
2023-05-05T17:24:26.673Z,12.94
2023-05-05T17:29:46.004Z,12.89
2023-05-05T17:35:04.812Z,12.86
2023-05-05T17:40:24.297Z,12.84
2023-05-05T17:45:43.096Z,12.84
2023-05-05T17:51:01.962Z,12.84
2023-05-05T17:56:20.736Z,12.83
2023-05-05T18:01:40.306Z,12.84
2023-05-05T18:07:00.179Z,12.83
2023-05-05T18:12:19.002Z,12.83
2023-05-05T18:22:57.823Z,12.83
2023-05-05T18:28:17.497Z,12.83
2023-05-05T18:33:36.965Z,12.82
2023-05-05T18:38:56.145Z,12.82
2023-05-05T18:44:15.389Z,12.82
2023-05-05T18:49:34.537Z,12.82
2023-05-05T18:54:54.012Z,12.82
2023-05-05T19:00:13.080Z,12.82
2023-05-05T19:05:32.020Z,12.82
2023-05-05T19:10:51.253Z,12.82
2023-05-05T19:16:10.536Z,12.81
2023-05-05T19:21:29.447Z,12.82
2023-05-05T19:26:48.263Z,12.81
2023-05-05T19:32:07.264Z,12.81
2023-05-05T19:37:26.265Z,12.81
2023-05-05T19:42:45.166Z,12.81
2023-05-05T19:48:04.239Z,12.81
2023-05-05T19:53:23.512Z,12.81
2023-05-05T19:58:42.364Z,12.8
2023-05-05T20:04:01.410Z,12.81
2023-05-05T20:09:20.377Z,12.8
2023-05-05T20:14:39.235Z,12.8
2023-05-05T20:19:58.290Z,12.8
2023-05-05T20:25:17.744Z,12.8
2023-05-05T20:30:37.481Z,12.8
2023-05-05T20:35:56.468Z,12.8
2023-05-05T20:46:35.367Z,12.79
2023-05-05T20:51:54.404Z,12.79
2023-05-05T20:57:13.906Z,12.79
2023-05-05T21:02:34.100Z,12.78
2023-05-05T21:07:53.404Z,12.78
2023-05-05T21:13:11.517Z,12.78
2023-05-05T21:29:10.136Z,12.78
2023-05-05T21:39:47.312Z,12.77
2023-05-05T21:45:06.362Z,12.78
2023-05-05T21:50:27.602Z,12.77
2023-05-05T21:55:45.262Z,12.76
2023-05-05T22:01:04.739Z,12.76
2023-05-05T22:06:23.914Z,12.76
2023-05-05T22:11:43.418Z,12.76
2023-05-05T22:17:02.457Z,12.76
2023-05-05T22:22:21.564Z,12.76
2023-05-05T22:27:41.108Z,12.76
2023-05-05T22:32:59.947Z,12.76
2023-05-05T22:38:19.522Z,12.76
2023-05-05T22:43:39.091Z,12.75
2023-05-05T22:48:58.442Z,12.76
2023-05-05T22:54:17.688Z,12.75
2023-05-05T22:59:36.568Z,12.75
2023-05-05T23:04:55.686Z,12.75
2023-05-05T23:10:14.821Z,12.75
2023-05-05T23:15:33.636Z,12.74
2023-05-05T23:20:52.444Z,12.75
2023-05-05T23:26:11.925Z,12.74
2023-05-05T23:31:31.198Z,12.75
2023-05-05T23:36:50.135Z,12.74
2023-05-05T23:47:28.649Z,12.74
2023-05-05T23:52:48.277Z,12.74
2023-05-05T23:58:07.478Z,12.74
